createdAt,value
2022-09-21T00:01:08.242Z,99218.31
2022-09-21T00:03:13.102Z,99212.31
2022-09-21T00:05:21.046Z,99214.09
2022-09-21T00:07:25.843Z,99212.38
2022-09-21T00:09:30.526Z,99208.03
2022-09-21T00:11:38.346Z,99213.28
2022-09-21T00:13:47.016Z,99215.94
2022-09-21T00:15:52.570Z,99215.16
2022-09-21T00:17:58.797Z,99214.31
2022-09-21T00:20:05.891Z,99210.06
2022-09-21T00:22:13.686Z,99213.53
2022-09-21T00:24:18.693Z,99210.09
2022-09-21T00:26:25.530Z,99209.25
2022-09-21T00:28:30.296Z,99213.69
2022-09-21T00:30:35.058Z,99214.63
2022-09-21T00:32:40.994Z,99209.41
2022-09-21T00:34:45.811Z,99215.50
2022-09-21T00:36:50.619Z,99210.28
2022-09-21T00:39:01.020Z,99207.84
2022-09-21T00:41:06.673Z,99212.25
2022-09-21T00:43:15.850Z,99209.84
2022-09-21T00:45:24.160Z,99214.31
2022-09-21T00:47:33.664Z,99220.47
2022-09-21T00:49:39.444Z,99218.66
2022-09-21T00:51:44.718Z,99220.34
2022-09-21T00:53:51.515Z,99221.19
2022-09-21T00:56:02.293Z,99219.47
2022-09-21T00:58:11.945Z,99216.91
2022-09-21T01:00:17.007Z,99220.34
2022-09-21T01:02:21.802Z,99225.53
2022-09-21T01:04:28.403Z,99216.84
2022-09-21T01:06:36.125Z,99217.97
2022-09-21T01:08:41.589Z,99228.50
2022-09-21T01:11:10.207Z,99231.09
2022-09-21T01:13:25.470Z,99230.38
2022-09-21T01:15:38.285Z,99237.28
2022-09-21T01:17:49.332Z,99255.53
2022-09-21T01:20:20.194Z,99267.56
2022-09-21T01:22:42.046Z,99267.31
2022-09-21T01:25:03.144Z,99263.69
2022-09-21T01:27:37.906Z,99260.09
2022-09-21T01:29:49.947Z,99256.53
2022-09-21T01:32:01.744Z,99247.81
2022-09-21T01:34:10.781Z,99254.66
2022-09-21T01:36:19.829Z,99244.22
2022-09-21T01:38:29.244Z,99245.88
2022-09-21T01:40:36.885Z,99243.53
2022-09-21T01:42:44.226Z,99240.03
2022-09-21T01:44:52.881Z,99239.16
2022-09-21T01:46:59.332Z,99237.44
2022-09-21T01:49:10.668Z,99238.28
2022-09-21T01:51:18.482Z,99249.56
2022-09-21T01:53:34.865Z,99247.03
2022-09-21T01:55:46.909Z,99255.56
2022-09-21T01:57:59.459Z,99254.56
2022-09-21T02:00:08.951Z,99252.75
2022-09-21T02:02:20.981Z,99251.00
2022-09-21T02:04:26.375Z,99251.84
2022-09-21T02:06:32.912Z,99252.06
2022-09-21T02:08:39.025Z,99260.66
2022-09-21T02:10:48.084Z,99257.09
2022-09-21T02:12:56.925Z,99253.66
2022-09-21T02:15:03.244Z,99250.22
2022-09-21T02:17:25.606Z,99243.34
2022-09-21T02:19:37.428Z,99245.97
2022-09-21T02:21:52.032Z,99233.84
2022-09-21T02:24:06.674Z,99247.63
2022-09-21T02:26:16.802Z,99239.78
2022-09-21T02:28:33.057Z,99242.25
2022-09-21T02:30:40.616Z,99245.69
2022-09-21T02:32:55.823Z,99240.38
2022-09-21T02:35:08.281Z,99225.63
2022-09-21T02:37:20.072Z,99225.72
2022-09-21T02:39:33.984Z,99235.50
2022-09-21T02:41:45.334Z,99237.31
2022-09-21T02:43:55.696Z,99236.38
2022-09-21T02:46:04.405Z,99242.44
2022-09-21T02:48:15.880Z,99240.75
2022-09-21T02:50:25.867Z,99238.25
2022-09-21T02:52:34.584Z,99242.47
2022-09-21T02:54:41.899Z,99244.13
2022-09-21T02:56:51.446Z,99239.78
2022-09-21T02:58:59.729Z,99238.00
2022-09-21T03:01:07.679Z,99232.03
2022-09-21T03:03:24.851Z,99235.47
2022-09-21T03:05:31.449Z,99236.28
2022-09-21T03:07:36.533Z,99226.81
2022-09-21T03:09:41.320Z,99228.59
2022-09-21T03:11:46.349Z,99230.31
2022-09-21T03:13:51.131Z,99232.16
2022-09-21T03:16:02.779Z,99229.72
2022-09-21T03:18:10.167Z,99230.72
2022-09-21T03:20:17.543Z,99229.03
2022-09-21T03:22:22.344Z,99235.06
2022-09-21T03:24:39.415Z,99246.47
2022-09-21T03:26:44.217Z,99233.47
2022-09-21T03:28:48.968Z,99252.44
2022-09-21T03:30:55.155Z,99249.72
2022-09-21T03:32:59.961Z,99249.81
2022-09-21T03:35:04.956Z,99246.28
2022-09-21T03:37:13.581Z,99249.72
2022-09-21T03:39:18.372Z,99253.16
2022-09-21T03:41:23.140Z,99248.81
2022-09-21T03:43:28.627Z,99247.88
2022-09-21T03:45:33.068Z,99251.31
2022-09-21T03:47:38.233Z,99263.44
2022-09-21T03:49:43.013Z,99253.06
2022-09-21T03:51:48.035Z,99259.06
2022-09-21T03:53:55.853Z,99259.81
2022-09-21T03:56:00.660Z,99250.31
2022-09-21T03:58:05.969Z,99242.56
2022-09-21T04:00:13.451Z,99252.06
2022-09-21T04:02:18.706Z,99255.53
2022-09-21T04:04:23.249Z,99251.22
2022-09-21T04:06:27.995Z,99261.50
2022-09-21T04:08:33.587Z,99258.78
2022-09-21T04:10:43.364Z,99254.38
2022-09-21T04:12:49.444Z,99256.13
2022-09-21T04:14:54.155Z,99257.91
2022-09-21T04:16:58.936Z,99262.22
2022-09-21T04:19:03.878Z,99263.00
2022-09-21T04:21:09.394Z,99260.41
2022-09-21T04:23:14.144Z,99269.06
2022-09-21T04:25:19.138Z,99277.69
2022-09-21T04:27:26.665Z,99268.28
2022-09-21T04:29:31.414Z,99265.78
2022-09-21T04:31:36.534Z,99272.78
2022-09-21T04:33:41.635Z,99275.31
2022-09-21T04:35:46.336Z,99271.88
2022-09-21T04:37:51.138Z,99273.69
2022-09-21T04:39:55.982Z,99280.84
2022-09-21T04:42:00.705Z,99295.66
2022-09-21T04:44:08.350Z,99292.28
2022-09-21T04:46:14.971Z,99300.91
2022-09-21T04:48:19.869Z,99301.81
2022-09-21T04:50:24.750Z,99303.56
2022-09-21T04:52:41.004Z,99305.25
2022-09-21T04:54:46.167Z,99306.19
2022-09-21T04:56:51.117Z,99309.50
2022-09-21T04:58:55.865Z,99306.81
2022-09-21T05:01:04.497Z,99308.44
2022-09-21T05:03:09.591Z,99305.84
2022-09-21T05:05:14.334Z,99301.66
2022-09-21T05:07:19.129Z,99312.97
2022-09-21T05:09:36.350Z,99317.22
2022-09-21T05:11:41.662Z,99323.16
2022-09-21T05:13:46.125Z,99323.94
2022-09-21T05:15:50.978Z,99317.91
2022-09-21T05:17:58.338Z,99319.78
2022-09-21T05:20:03.171Z,99311.22
2022-09-21T05:22:08.117Z,99318.28
2022-09-21T05:24:13.146Z,99325.28
2022-09-21T05:26:17.920Z,99330.44
2022-09-21T05:28:23.293Z,99327.78
2022-09-21T05:30:29.322Z,99329.69
2022-09-21T05:32:47.845Z,99331.44
2022-09-21T05:35:03.050Z,99334.06
2022-09-21T05:37:15.281Z,99347.13
2022-09-21T05:39:20.788Z,99335.81
2022-09-21T05:41:26.367Z,99338.25
2022-09-21T05:43:31.827Z,99339.09
2022-09-21T05:45:37.271Z,99340.06
2022-09-21T05:47:48.887Z,99350.38
2022-09-21T05:50:02.672Z,99350.38
2022-09-21T05:52:16.469Z,99350.25
2022-09-21T05:54:29.263Z,99345.03
2022-09-21T05:56:51.621Z,99335.66
2022-09-21T05:59:05.764Z,99334.78
2022-09-21T06:01:23.171Z,99339.16
2022-09-21T06:03:32.902Z,99344.25
2022-09-21T06:05:40.254Z,99349.38
2022-09-21T06:07:45.315Z,99344.91
2022-09-21T06:09:50.118Z,99336.28
2022-09-21T06:11:54.857Z,99349.38
2022-09-21T06:13:59.682Z,99352.78
2022-09-21T06:16:05.207Z,99353.56
2022-09-21T06:18:15.522Z,99344.81
2022-09-21T06:20:23.569Z,99349.09
2022-09-21T06:22:30.867Z,99344.69
2022-09-21T06:24:35.660Z,99344.69
2022-09-21T06:26:40.690Z,99341.22
2022-09-21T06:28:45.447Z,99344.81
2022-09-21T06:30:54.508Z,99344.81
2022-09-21T06:33:02.040Z,99341.31
2022-09-21T06:35:07.437Z,99346.50
2022-09-21T06:37:12.197Z,99352.69
2022-09-21T06:39:19.528Z,99350.94
2022-09-21T06:41:24.275Z,99354.53
2022-09-21T06:43:28.977Z,99356.28
2022-09-21T06:45:34.251Z,99357.06
2022-09-21T06:47:38.779Z,99355.38
2022-09-21T06:49:43.589Z,99368.25
2022-09-21T06:51:50.277Z,99365.41
2022-09-21T06:53:58.059Z,99365.19
2022-09-21T06:56:10.161Z,99361.63
2022-09-21T06:58:14.949Z,99357.16
2022-09-21T07:00:19.787Z,99352.78
2022-09-21T07:02:24.535Z,99356.13
2022-09-21T07:04:29.307Z,99350.81
2022-09-21T07:06:34.465Z,99350.72
2022-09-21T07:11:05.514Z,99355.72
2022-09-21T07:13:12.902Z,99359.09
2022-09-21T07:15:19.244Z,99359.81
2022-09-21T07:17:24.468Z,99357.13
2022-09-21T07:19:28.979Z,99361.34
2022-09-21T07:21:33.790Z,99347.44
2022-09-21T07:23:38.906Z,99353.53
2022-09-21T07:25:43.960Z,99348.28
2022-09-21T07:27:48.730Z,99354.28
2022-09-21T07:29:56.028Z,99355.81
2022-09-21T07:32:00.839Z,99349.66
2022-09-21T07:34:05.956Z,99352.19
2022-09-21T07:36:13.278Z,99353.88
2022-09-21T07:38:18.174Z,99356.16
2022-09-21T07:40:25.181Z,99349.22
2022-09-21T07:42:30.334Z,99351.88
2022-09-21T07:44:35.406Z,99352.00
2022-09-21T07:46:47.274Z,99356.06
2022-09-21T07:48:56.560Z,99351.66
2022-09-21T07:51:06.266Z,99351.09
2022-09-21T07:53:11.028Z,99350.88
2022-09-21T07:55:15.863Z,99354.19
2022-09-21T07:57:33.098Z,99347.50
2022-09-21T07:59:37.815Z,99346.53
2022-09-21T08:01:45.257Z,99350.59
2022-09-21T08:03:51.967Z,99350.59
2022-09-21T08:05:56.688Z,99352.97
2022-09-21T08:08:01.965Z,99352.72
2022-09-21T08:10:07.268Z,99345.81
2022-09-21T08:12:12.206Z,99348.59
2022-09-21T08:14:23.852Z,99353.34
2022-09-21T08:16:31.945Z,99359.31
2022-09-21T08:18:44.117Z,99357.06
2022-09-21T08:20:56.745Z,99352.13
2022-09-21T08:23:02.388Z,99340.69
2022-09-21T08:25:07.862Z,99346.47
2022-09-21T08:27:12.660Z,99339.25
2022-09-21T08:29:17.501Z,99333.38
2022-09-21T08:31:24.420Z,99335.22
2022-09-21T08:33:29.996Z,99331.28
2022-09-21T08:35:37.986Z,99328.38
2022-09-21T08:37:42.726Z,99324.66
2022-09-21T08:39:47.480Z,99326.19
2022-09-21T08:42:06.223Z,99318.69
2022-09-21T08:44:16.143Z,99320.81
2022-09-21T08:46:24.152Z,99317.81
2022-09-21T08:48:36.594Z,99314.28
2022-09-21T08:50:49.450Z,99314.56
2022-09-21T08:53:00.626Z,99319.41
2022-09-21T08:55:13.097Z,99328.72
2022-09-21T08:57:21.654Z,99324.44
2022-09-21T08:59:26.459Z,99333.94
2022-09-21T09:01:42.018Z,99327.34
2022-09-21T09:04:04.694Z,99320.53
2022-09-21T09:06:26.622Z,99319.09
2022-09-21T09:08:58.853Z,99324.97
2022-09-21T09:11:17.098Z,99321.19
2022-09-21T09:13:50.414Z,99322.94
2022-09-21T09:16:05.865Z,99322.25
2022-09-21T09:18:17.786Z,99319.31
2022-09-21T09:20:26.809Z,99320.25
2022-09-21T09:22:40.435Z,99318.63
2022-09-21T09:24:49.525Z,99321.53
2022-09-21T09:26:58.384Z,99317.53
2022-09-21T09:29:09.877Z,99318.59
2022-09-21T09:31:21.345Z,99324.88
2022-09-21T09:33:30.876Z,99326.75
2022-09-21T09:35:41.025Z,99329.34
2022-09-21T09:37:50.062Z,99327.06
2022-09-21T09:39:59.603Z,99332.41
2022-09-21T09:42:24.496Z,99328.91
2022-09-21T09:44:54.720Z,99328.06
2022-09-21T09:47:07.863Z,99320.97
2022-09-21T09:49:35.810Z,99320.88
2022-09-21T09:51:42.996Z,99312.13
2022-09-21T09:53:50.674Z,99316.31
2022-09-21T09:55:57.573Z,99302.81
2022-09-21T09:58:02.395Z,99304.16
2022-09-21T10:00:12.530Z,99301.88
2022-09-21T10:02:23.767Z,99299.72
2022-09-21T10:04:28.596Z,99290.81
2022-09-21T10:06:34.942Z,99284.59
2022-09-21T10:08:46.624Z,99276.53
2022-09-21T10:10:54.093Z,99274.25
2022-09-21T10:13:06.808Z,99268.56
2022-09-21T10:15:14.592Z,99271.72
2022-09-21T10:17:21.353Z,99273.44
2022-09-21T10:19:29.246Z,99277.22
2022-09-21T10:21:38.365Z,99272.00
2022-09-21T10:23:48.189Z,99273.72
2022-09-21T10:26:04.753Z,99265.59
2022-09-21T10:28:09.518Z,99268.78
2022-09-21T10:30:35.383Z,99261.59
2022-09-21T10:32:41.019Z,99263.03
2022-09-21T10:35:18.201Z,99252.19
2022-09-21T10:37:29.987Z,99253.72
2022-09-21T10:39:36.049Z,99252.78
2022-09-21T10:41:43.454Z,99248.34
2022-09-21T10:43:50.751Z,99239.53
2022-09-21T10:45:57.789Z,99234.13
2022-09-21T10:48:11.622Z,99234.56
2022-09-21T10:50:27.005Z,99228.31
2022-09-21T10:52:37.366Z,99224.56
2022-09-21T10:54:44.281Z,99226.63
2022-09-21T10:57:01.815Z,99228.81
2022-09-21T10:59:15.141Z,99221.47
2022-09-21T11:01:25.815Z,99217.78
2022-09-21T11:03:53.519Z,99219.91
2022-09-21T11:06:02.573Z,99216.88
2022-09-21T11:08:14.302Z,99213.03
2022-09-21T11:10:28.082Z,99206.94
2022-09-21T11:12:48.709Z,99195.19
2022-09-21T11:15:03.553Z,99186.81
2022-09-21T11:17:15.107Z,99198.22
2022-09-21T11:19:28.107Z,99190.28
2022-09-21T11:21:43.372Z,99185.56
2022-09-21T11:23:58.888Z,99188.19
2022-09-21T11:26:11.552Z,99174.78
2022-09-21T11:28:24.477Z,99171.38
2022-09-21T11:30:35.317Z,99173.00
2022-09-21T11:33:05.880Z,99174.69
2022-09-21T11:35:34.091Z,99162.81
2022-09-21T11:37:52.489Z,99160.50
2022-09-21T11:40:15.077Z,99156.72
2022-09-21T11:42:34.597Z,99147.22
2022-09-21T11:44:53.277Z,99137.69
2022-09-21T11:47:09.490Z,99130.53
2022-09-21T11:49:35.362Z,99141.81
2022-09-21T11:51:59.399Z,99134.66
2022-09-21T11:54:26.187Z,99126.69
2022-09-21T11:56:46.172Z,99135.72
2022-09-21T11:59:01.131Z,99128.09
2022-09-21T12:01:19.552Z,99127.09
2022-09-21T12:03:40.873Z,99130.31
2022-09-21T12:05:53.244Z,99127.63
2022-09-21T12:08:25.895Z,99126.44
2022-09-21T12:10:42.537Z,99122.75
2022-09-21T12:12:57.045Z,99116.53
2022-09-21T12:15:09.915Z,99114.25
2022-09-21T12:17:24.512Z,99114.91
2022-09-21T12:19:39.949Z,99114.03
2022-09-21T12:21:48.491Z,99109.16
2022-09-21T12:23:57.546Z,99101.13
2022-09-21T12:26:06.364Z,99111.13
2022-09-21T12:28:17.542Z,99110.19
2022-09-21T12:30:24.963Z,99103.97
2022-09-21T12:32:50.545Z,99096.50
2022-09-21T12:35:05.346Z,99098.81
2022-09-21T12:37:16.547Z,99095.97
2022-09-21T12:39:27.884Z,99098.69
2022-09-21T12:41:39.610Z,99098.41
2022-09-21T12:43:49.859Z,99094.69
2022-09-21T12:46:00.187Z,99098.19
2022-09-21T12:48:14.186Z,99085.34
2022-09-21T12:50:23.331Z,99086.91
2022-09-21T12:52:31.012Z,99082.09
2022-09-21T12:54:45.130Z,99074.63
2022-09-21T12:56:56.578Z,99082.63
2022-09-21T12:59:25.527Z,99079.69
2022-09-21T13:01:36.500Z,99080.78
2022-09-21T13:03:56.166Z,99088.16
2022-09-21T13:06:26.927Z,99083.63
2022-09-21T13:08:36.786Z,99082.00
2022-09-21T13:10:49.185Z,99078.69
2022-09-21T13:13:04.449Z,99079.09
2022-09-21T13:15:25.389Z,99076.00
2022-09-21T13:17:34.013Z,99069.75
2022-09-21T13:19:41.365Z,99077.41
2022-09-21T13:21:46.849Z,99072.88
2022-09-21T13:23:58.378Z,99076.94
2022-09-21T13:26:06.569Z,99066.78
2022-09-21T13:28:24.254Z,99069.44
2022-09-21T13:30:35.106Z,99065.28
2022-09-21T13:32:54.852Z,99066.19
2022-09-21T13:35:37.176Z,99065.28
2022-09-21T13:37:42.871Z,99059.97
2022-09-21T13:39:48.572Z,99056.34
2022-09-21T13:42:02.836Z,99060.06
2022-09-21T13:44:20.929Z,99057.19
2022-09-21T13:46:56.941Z,99049.63
2022-09-21T13:49:05.068Z,99050.78
2022-09-21T13:51:14.469Z,99045.94
2022-09-21T13:53:24.279Z,99042.88
2022-09-21T13:55:33.267Z,99049.66
2022-09-21T13:57:44.578Z,99044.81
2022-09-21T13:59:59.921Z,99043.13
2022-09-21T14:02:06.614Z,99041.41
2022-09-21T14:04:25.967Z,99035.28
2022-09-21T14:06:37.292Z,99041.91
2022-09-21T14:08:52.267Z,99042.25
2022-09-21T14:11:01.472Z,99041.94
2022-09-21T14:13:09.635Z,99031.00
2022-09-21T14:15:40.106Z,99030.75
2022-09-21T14:17:45.927Z,99027.34
2022-09-21T14:20:30.253Z,99031.28
2022-09-21T14:22:44.452Z,99028.91
2022-09-21T14:24:51.382Z,99023.81
2022-09-21T14:27:07.118Z,99019.47
2022-09-21T14:29:18.566Z,99017.78
2022-09-21T14:31:29.370Z,99017.34
2022-09-21T14:33:42.736Z,99020.72
2022-09-21T14:35:49.405Z,99023.03
2022-09-21T14:38:00.562Z,99018.72
2022-09-21T14:40:09.288Z,99018.75
2022-09-21T14:42:19.601Z,99020.50
2022-09-21T14:44:29.488Z,99017.69
2022-09-21T14:46:53.860Z,99019.59
2022-09-21T14:49:09.172Z,99014.66
2022-09-21T14:51:23.695Z,99005.41
2022-09-21T14:53:41.911Z,99011.63
2022-09-21T14:56:10.172Z,99010.03
2022-09-21T14:58:29.227Z,99007.25
2022-09-21T15:00:42.927Z,99017.53
2022-09-21T15:02:47.852Z,99006.97
2022-09-21T15:05:04.311Z,99010.25
2022-09-21T15:07:38.068Z,99010.66
2022-09-21T15:10:22.469Z,99005.75
2022-09-21T15:12:39.726Z,99008.03
2022-09-21T15:14:47.754Z,99003.75
2022-09-21T15:16:53.903Z,99001.19
2022-09-21T15:19:16.309Z,99000.19
2022-09-21T15:21:29.360Z,99000.34
2022-09-21T15:23:38.468Z,98998.72
2022-09-21T15:25:58.830Z,98993.97
2022-09-21T15:28:05.879Z,98993.97
2022-09-21T15:30:23.260Z,98989.03
2022-09-21T15:32:35.673Z,98987.72
2022-09-21T15:34:40.510Z,98990.50
2022-09-21T15:36:49.169Z,98983.53
2022-09-21T15:38:56.606Z,98991.34
2022-09-21T15:41:08.455Z,98985.25
2022-09-21T15:43:21.875Z,98982.00
2022-09-21T15:45:29.182Z,98979.53
2022-09-21T15:47:35.591Z,98982.31
2022-09-21T15:49:40.565Z,98974.22
2022-09-21T15:51:46.569Z,98980.47
2022-09-21T15:53:55.963Z,98979.53
2022-09-21T15:56:03.787Z,98981.22
2022-09-21T15:58:22.631Z,98974.22
2022-09-21T16:00:31.360Z,98972.88
2022-09-21T16:02:40.899Z,98971.13
2022-09-21T16:04:52.160Z,98978.91
2022-09-21T16:07:05.773Z,98970.72
2022-09-21T16:09:39.087Z,98973.13
2022-09-21T16:11:46.535Z,98978.44
2022-09-21T16:14:12.722Z,98977.75
2022-09-21T16:16:17.793Z,98976.59
2022-09-21T16:18:35.371Z,98969.56
2022-09-21T16:20:47.466Z,98980.22
2022-09-21T16:22:55.490Z,98981.63
2022-09-21T16:25:03.831Z,98972.97
2022-09-21T16:27:19.504Z,98975.44
2022-09-21T16:29:26.096Z,98975.06
2022-09-21T16:31:38.014Z,98983.84
2022-09-21T16:33:45.287Z,98984.84
2022-09-21T16:35:50.312Z,98984.94
2022-09-21T16:37:58.752Z,98987.75
2022-09-21T16:40:03.622Z,98985.38
2022-09-21T16:42:12.228Z,98990.78
2022-09-21T16:44:20.880Z,98986.59
2022-09-21T16:46:26.736Z,98999.81
2022-09-21T16:48:31.526Z,98987.84
2022-09-21T16:50:36.926Z,98985.66
2022-09-21T16:52:41.694Z,98987.41
2022-09-21T16:54:48.630Z,98989.44
2022-09-21T16:56:54.514Z,98991.41
2022-09-21T16:59:03.994Z,98987.25
2022-09-21T17:01:13.025Z,98987.31
2022-09-21T17:03:17.886Z,98987.41
2022-09-21T17:05:22.678Z,98990.13
2022-09-21T17:07:27.850Z,98985.81
2022-09-21T17:09:35.313Z,98993.34
2022-09-21T17:11:40.329Z,98997.03
2022-09-21T17:13:45.931Z,98997.22
2022-09-21T17:15:53.675Z,98999.84
2022-09-21T17:17:59.057Z,98999.19
2022-09-21T17:20:05.949Z,99002.97
2022-09-21T17:22:17.553Z,99001.38
2022-09-21T17:24:46.048Z,99001.47
2022-09-21T17:26:47.508Z,98999.84
2022-09-21T17:28:53.573Z,99008.88
2022-09-21T17:31:02.368Z,99002.78
2022-09-21T17:33:07.477Z,99008.03
2022-09-21T17:35:19.657Z,99005.50
2022-09-21T17:37:25.372Z,98998.81
2022-09-21T17:39:30.153Z,99012.03
2022-09-21T17:41:45.559Z,99018.25
2022-09-21T17:44:00.763Z,99017.59
2022-09-21T17:46:14.388Z,99019.59
2022-09-21T17:48:22.937Z,99019.75
2022-09-21T17:50:30.024Z,99025.03
2022-09-21T17:52:47.599Z,99027.06
2022-09-21T17:54:52.999Z,99031.50
2022-09-21T17:57:04.973Z,99032.44
2022-09-21T17:59:26.350Z,99032.63
2022-09-21T18:01:38.716Z,99033.81
2022-09-21T18:03:46.147Z,99042.81
2022-09-21T18:05:52.811Z,99035.06
2022-09-21T18:07:58.452Z,99034.97
2022-09-21T18:10:03.869Z,99034.22
2022-09-21T18:12:39.560Z,99034.31
2022-09-21T18:14:54.995Z,99038.91
2022-09-21T18:17:16.309Z,99036.41
2022-09-21T18:19:35.312Z,99039.22
2022-09-21T18:21:48.807Z,99042.81
2022-09-21T18:24:16.410Z,99037.69
2022-09-21T18:26:23.466Z,99043.16
2022-09-21T18:28:40.638Z,99040.69
2022-09-21T18:30:53.087Z,99047.97
2022-09-21T18:33:12.876Z,99051.53
2022-09-21T18:35:40.618Z,99060.38
2022-09-21T18:37:59.563Z,99053.56
2022-09-21T18:40:15.306Z,99059.06
2022-09-21T18:42:34.035Z,99066.28
2022-09-21T18:44:49.251Z,99064.69
2022-09-21T18:47:09.800Z,99065.00
2022-09-21T18:49:23.927Z,99070.50
2022-09-21T18:51:36.630Z,99073.28
2022-09-21T18:53:48.569Z,99065.66
2022-09-21T18:55:53.966Z,99064.91
2022-09-21T18:58:00.021Z,99066.78
2022-09-21T19:00:05.726Z,99067.75
2022-09-21T19:02:15.525Z,99076.44
2022-09-21T19:04:23.620Z,99067.09
2022-09-21T19:06:40.262Z,99064.50
2022-09-21T19:08:54.099Z,99069.00
2022-09-21T19:11:06.706Z,99078.66
2022-09-21T19:13:31.479Z,99078.72
2022-09-21T19:16:00.484Z,99077.13
2022-09-21T19:18:18.366Z,99085.06
2022-09-21T19:20:44.398Z,99080.75
2022-09-21T19:22:56.024Z,99081.72
2022-09-21T19:25:12.492Z,99080.91
2022-09-21T19:27:25.199Z,99082.78
2022-09-21T19:29:56.176Z,99082.94
2022-09-21T19:32:01.258Z,99083.13
2022-09-21T19:34:16.101Z,99082.50
2022-09-21T19:36:24.276Z,99086.19
2022-09-21T19:38:29.822Z,99082.72
2022-09-21T19:40:38.844Z,99080.03
2022-09-21T19:42:56.037Z,99078.28
2022-09-21T19:45:10.268Z,99077.44
2022-09-21T19:47:25.684Z,99073.97
2022-09-21T19:49:39.243Z,99077.53
2022-09-21T19:51:49.942Z,99076.81
2022-09-21T19:54:11.120Z,99076.91
2022-09-21T19:56:30.232Z,99079.63
2022-09-21T19:58:48.339Z,99085.81
2022-09-21T20:00:56.053Z,99085.00
2022-09-21T20:03:07.497Z,99082.47
2022-09-21T20:05:18.954Z,99087.72
2022-09-21T20:07:32.898Z,99094.72
2022-09-21T20:09:47.859Z,99086.16
2022-09-21T20:12:01.198Z,99082.81
2022-09-21T20:14:19.135Z,99085.47
2022-09-21T20:16:40.565Z,99082.09
2022-09-21T20:18:56.008Z,99083.94
2022-09-21T20:21:01.538Z,99089.28
2022-09-21T20:23:13.085Z,99088.47
2022-09-21T20:25:23.454Z,99084.25
2022-09-21T20:27:35.188Z,99100.28
2022-09-21T20:29:42.455Z,99104.94
2022-09-21T20:31:53.335Z,99105.97
2022-09-21T20:33:58.058Z,99106.91
2022-09-21T20:36:03.553Z,99116.63
2022-09-21T20:38:10.972Z,99123.63
2022-09-21T20:40:16.867Z,99113.28
2022-09-21T20:42:24.393Z,99119.41
2022-09-21T20:44:29.138Z,99116.78
2022-09-21T20:46:34.039Z,99115.91
2022-09-21T20:48:40.130Z,99117.69
2022-09-21T20:50:46.298Z,99121.22
2022-09-21T20:52:51.181Z,99122.16
2022-09-21T20:54:58.552Z,99118.72
2022-09-21T20:57:03.269Z,99123.09
2022-09-21T20:59:08.006Z,99124.03
2022-09-21T21:01:12.859Z,99126.72
2022-09-21T21:03:17.885Z,99125.88
2022-09-21T21:05:22.616Z,99125.13
2022-09-21T21:07:30.531Z,99123.38
2022-09-21T21:09:35.725Z,99119.91
2022-09-21T21:11:43.090Z,99126.00
2022-09-21T21:13:48.129Z,99127.03
2022-09-21T21:15:55.644Z,99132.50
2022-09-21T21:18:00.699Z,99132.72
2022-09-21T21:20:05.785Z,99127.59
2022-09-21T21:22:10.544Z,99130.28
2022-09-21T21:24:27.763Z,99135.47
2022-09-21T21:26:57.290Z,99131.31
2022-09-21T21:29:00.146Z,99135.91
2022-09-21T21:31:04.849Z,99135.13
2022-09-21T21:33:10.150Z,99135.19
2022-09-21T21:35:14.600Z,99134.38
2022-09-21T21:37:21.096Z,99136.13
2022-09-21T21:39:25.983Z,99137.84
2022-09-21T21:41:31.275Z,99139.69
2022-09-21T21:43:36.086Z,99141.91
2022-09-21T21:45:43.412Z,99143.56
2022-09-21T21:47:48.177Z,99143.59
2022-09-21T21:49:52.959Z,99144.50
2022-09-21T21:51:57.705Z,99147.09
2022-09-21T21:54:02.723Z,99150.63
2022-09-21T21:56:09.146Z,99140.22
2022-09-21T21:58:13.978Z,99142.84
2022-09-21T22:00:18.718Z,99140.59
2022-09-21T22:02:26.533Z,99144.09
2022-09-21T22:04:31.305Z,99142.34
2022-09-21T22:06:38.425Z,99138.81
2022-09-21T22:08:43.708Z,99143.09
2022-09-21T22:10:51.838Z,99140.50
2022-09-21T22:12:57.153Z,99138.88
2022-09-21T22:15:02.784Z,99145.09
2022-09-21T22:17:07.850Z,99146.13
2022-09-21T22:19:15.202Z,99146.34
2022-09-21T22:21:22.977Z,99151.72
2022-09-21T22:23:27.704Z,99152.56
2022-09-21T22:25:32.498Z,99155.25
2022-09-21T22:27:37.241Z,99158.84
2022-09-21T22:29:41.981Z,99154.47
2022-09-21T22:31:49.687Z,99159.66
2022-09-21T22:33:55.123Z,99164.13
2022-09-21T22:36:07.268Z,99164.28
2022-09-21T22:38:13.210Z,99161.00
2022-09-21T22:40:18.230Z,99164.44
2022-09-21T22:42:23.337Z,99156.56
2022-09-21T22:44:28.127Z,99148.66
2022-09-21T22:46:34.388Z,99146.94
2022-09-21T22:48:39.717Z,99145.22
2022-09-21T22:50:46.046Z,99151.50
2022-09-21T22:52:53.148Z,99148.31
2022-09-21T22:54:57.840Z,99148.38
2022-09-21T22:57:02.615Z,99156.13
2022-09-21T22:59:08.503Z,99149.91
2022-09-21T23:01:15.841Z,99149.00
2022-09-21T23:03:20.577Z,99146.34
2022-09-21T23:05:26.793Z,99148.94
2022-09-21T23:07:31.506Z,99147.22
2022-09-21T23:09:38.872Z,99148.94
2022-09-21T23:11:47.465Z,99142.97
2022-09-21T23:13:52.629Z,99151.75
2022-09-21T23:15:57.381Z,99140.66
2022-09-21T23:18:02.230Z,99152.00
2022-09-21T23:20:07.774Z,99147.63
2022-09-21T23:22:12.539Z,99130.25
2022-09-21T23:24:17.241Z,99128.50
2022-09-21T23:26:26.249Z,99129.38
2022-09-21T23:28:31.052Z,99138.13
2022-09-21T23:30:36.278Z,99135.63
2022-09-21T23:32:40.762Z,99130.94
2022-09-21T23:34:45.477Z,99136.31
2022-09-21T23:36:50.212Z,99138.25
2022-09-21T23:38:55.300Z,99153.84
2022-09-21T23:41:08.986Z,99148.75
2022-09-21T23:43:16.385Z,99162.69
2022-09-21T23:45:21.205Z,99153.22
2022-09-21T23:47:26.070Z,99155.81
2022-09-21T23:49:30.842Z,99160.09
2022-09-21T23:51:36.494Z,99153.09
2022-09-21T23:53:42.079Z,99156.44
2022-09-21T23:55:46.802Z,99157.22
2022-09-21T23:57:51.513Z,99155.63
2022-09-21T23:59:58.850Z,99164.38
